Strona główna
METAR-TAF:

METAR-TAF

Lotnisko :

Chicago Executive Airport

Wheeling / Prospect Heights, Illinois, Stany Zjednoczone

Szerokość geograficzna: 42-07-15N, Długość geograficzna: 087-54-17W, wysokość: 197 m

Aktualna obserwacja pogody

Raport powstał 18 minut temu, godzina 05:52 UTC
Cisza
Temperatura 12°C
Wilgotność 71%
Ciśnienie 1025 hPa
Widzialność: 16.1 km
bezchmurnie

METAR: KPWK 010552Z AUTO 00000KT 10SM CLR 12/07 A3027 RMK AO2 SLP250 T01170072 10172 20111 401830100 56002

czas: 01:10 (06:10 UTC)


TAF: brakujący

Obserwacja i prognoza pogody dla ponad 4000 lotnisk (raport METAR i TAF).

Dostępne stacje oznaczono żółtymi i czerwonymi punktami na mapie.

Najedź kursorem aby zobaczyć nazwę stacji.

Kliknij aby zobaczyć obserwacje i prognozy pogody.

Aby zmienić mapę: kliknij na zielony przycisk z czarnym krzyżykiem, aby powiększyć; na zielony przycisk z myślnikiem, aby pomniejszyć; na zielone strzałki, aby przejść do map sąsiednich.


METAR-TAF: